createdAt,value
2023-04-02T00:02:01.502Z,9.0
2023-04-02T00:07:01.281Z,8.8
2023-04-02T00:12:01.284Z,8.9
2023-04-02T00:17:01.592Z,8.6
2023-04-02T00:22:01.811Z,7.7
2023-04-02T00:27:01.403Z,7.6
2023-04-02T00:32:01.517Z,7.4
2023-04-02T00:37:01.649Z,7.3
2023-04-02T00:42:02.538Z,7.5
2023-04-02T00:47:01.335Z,8.0
2023-04-02T00:52:01.271Z,7.6
2023-04-02T00:57:01.558Z,8.2
2023-04-02T01:02:16.993Z,8.2
2023-04-02T01:07:01.327Z,8.7
2023-04-02T01:12:01.362Z,9.1
2023-04-02T01:17:01.383Z,10.1
2023-04-02T01:22:01.288Z,10.4
2023-04-02T01:27:01.341Z,10.7
2023-04-02T01:32:01.340Z,10.6
2023-04-02T01:37:01.511Z,10.5
2023-04-02T01:42:16.754Z,10.2
2023-04-02T01:47:02.453Z,9.9
2023-04-02T01:52:01.284Z,9.5
2023-04-02T01:57:01.502Z,9.4
2023-04-02T02:02:01.505Z,9.4
2023-04-02T02:07:01.289Z,9.1
2023-04-02T02:12:01.304Z,9.3
2023-04-02T02:22:01.436Z,9.2
2023-04-02T02:27:01.813Z,8.3
2023-04-02T02:32:01.615Z,7.8
2023-04-02T02:37:01.318Z,7.2
2023-04-02T02:42:01.443Z,7.1
2023-04-02T02:47:08.447Z,6.7
2023-04-02T02:52:01.367Z,7.0
2023-04-02T02:57:05.697Z,7.5
2023-04-02T03:02:01.308Z,8.1
2023-04-02T03:07:01.310Z,8.3
2023-04-02T03:12:01.255Z,8.0
2023-04-02T03:17:01.571Z,7.9
2023-04-02T03:22:01.282Z,7.8
2023-04-02T03:27:05.900Z,7.0
2023-04-02T03:32:01.422Z,6.2
2023-04-02T03:37:01.495Z,5.8
2023-04-02T03:42:01.337Z,5.7
2023-04-02T03:47:01.310Z,5.3
2023-04-02T03:52:01.281Z,5.5
2023-04-02T03:57:02.713Z,6.3
2023-04-02T04:02:10.267Z,7.0
2023-04-02T04:07:01.328Z,8.0
2023-04-02T04:12:01.275Z,8.8
2023-04-02T04:17:01.429Z,8.8
2023-04-02T04:22:10.117Z,9.1
2023-04-02T04:27:01.451Z,8.7
2023-04-02T04:32:01.665Z,8.1
2023-04-02T04:37:01.569Z,7.6
2023-04-02T04:42:01.285Z,7.9
2023-04-02T04:47:01.270Z,7.6
2023-04-02T04:52:01.279Z,7.9
2023-04-02T04:57:03.221Z,8.0
2023-04-02T05:20:06.401Z,9.0
2023-04-02T05:26:01.339Z,11.6
2023-04-02T05:31:01.514Z,12.4
2023-04-02T05:36:01.629Z,15.2
2023-04-02T05:41:01.294Z,18.9
2023-04-02T05:46:01.291Z,23.1
2023-04-02T05:51:01.334Z,25.0
2023-04-02T05:56:01.570Z,23.8
2023-04-02T06:01:01.358Z,20.6
2023-04-02T06:06:06.053Z,15.6
2023-04-02T06:11:01.303Z,11.8
2023-04-02T06:16:01.517Z,9.1
2023-04-02T06:21:01.297Z,10.1
2023-04-02T06:26:01.298Z,12.0
2023-04-02T06:31:01.526Z,12.2
2023-04-02T06:36:01.593Z,12.4
2023-04-02T06:41:01.363Z,13.0
2023-04-02T06:46:01.488Z,13.1
2023-04-02T06:51:01.363Z,11.2
2023-04-02T06:56:01.663Z,11.1
2023-04-02T07:01:01.281Z,10.5
2023-04-02T07:06:02.246Z,9.8
2023-04-02T07:11:06.888Z,10.7
2023-04-02T07:16:01.827Z,11.0
2023-04-02T07:21:01.389Z,10.9
2023-04-02T07:26:01.574Z,10.6
2023-04-02T07:31:01.503Z,10.1
2023-04-02T07:36:02.014Z,7.9
2023-04-02T07:41:01.282Z,8.2
2023-04-02T07:46:01.337Z,8.4
2023-04-02T07:51:01.498Z,8.7
2023-04-02T07:56:06.660Z,10.3
2023-04-02T08:01:01.365Z,10.9
2023-04-02T08:06:06.525Z,10.8
2023-04-02T08:11:06.416Z,10.2
2023-04-02T08:16:01.273Z,10.1
2023-04-02T08:21:06.404Z,8.2
2023-04-02T08:26:06.484Z,7.6
2023-04-02T08:31:01.420Z,6.6
2023-04-02T08:36:01.521Z,6.0
2023-04-02T08:41:01.531Z,5.6
2023-04-02T08:46:01.518Z,5.3
2023-04-02T08:51:01.344Z,5.1
2023-04-02T08:56:02.459Z,5.5
2023-04-02T09:01:01.335Z,6.8
2023-04-02T09:06:06.600Z,8.0
2023-04-02T09:11:01.407Z,8.9
2023-04-02T09:16:01.465Z,9.6
2023-04-02T09:21:01.388Z,9.7
2023-04-02T09:31:01.540Z,8.1
2023-04-02T09:36:01.495Z,7.9
2023-04-02T09:41:06.905Z,8.3
2023-04-02T09:46:06.596Z,7.1
2023-04-02T09:51:06.305Z,6.8
2023-04-02T09:56:04.253Z,8.2
2023-04-02T10:01:01.425Z,8.5
2023-04-02T10:06:06.495Z,8.3
2023-04-02T10:11:06.374Z,11.1
2023-04-02T10:16:06.631Z,12.6
2023-04-02T10:21:06.303Z,14.4
2023-04-02T10:26:06.461Z,14.6
2023-04-02T10:31:02.896Z,15.0
2023-04-02T10:36:01.478Z,14.3
2023-04-02T10:41:06.753Z,14.3
2023-04-02T10:46:06.628Z,11.9
2023-04-02T10:51:06.309Z,12.1
2023-04-02T11:01:01.284Z,11.1
2023-04-02T11:06:06.470Z,9.7
2023-04-02T11:11:06.273Z,10.4
2023-04-02T11:16:01.448Z,9.6
2023-04-02T11:21:02.041Z,9.1
2023-04-02T11:26:01.422Z,8.6
2023-04-02T11:31:01.450Z,8.0
2023-04-02T11:36:06.398Z,6.5
2023-04-02T11:41:06.403Z,6.7
2023-04-02T11:46:02.190Z,6.6
2023-04-02T11:51:06.616Z,6.1
2023-04-02T11:56:01.312Z,8.0
2023-04-02T12:01:06.373Z,9.5
2023-04-02T12:06:04.668Z,9.8
2023-04-02T12:11:06.249Z,9.7
2023-04-02T12:16:01.768Z,9.9
2023-04-02T12:21:06.459Z,8.8
2023-04-02T12:26:01.291Z,7.9
2023-04-02T12:31:12.766Z,7.0
2023-04-02T12:36:01.567Z,7.0
2023-04-02T12:41:01.436Z,6.7
2023-04-02T12:46:06.500Z,5.6
2023-04-02T12:51:06.318Z,5.0
2023-04-02T12:56:01.408Z,4.4
2023-04-02T13:01:01.645Z,4.0
2023-04-02T13:06:01.301Z,3.6
2023-04-02T13:11:01.268Z,3.8
2023-04-02T13:16:01.469Z,3.4
2023-04-02T13:21:06.460Z,3.8
2023-04-02T13:26:12.541Z,5.8
2023-04-02T13:31:01.276Z,6.8
2023-04-02T13:36:01.474Z,6.6
2023-04-02T13:41:06.447Z,7.2
2023-04-02T13:46:06.477Z,6.9
2023-04-02T13:51:02.281Z,5.4
2023-04-02T13:56:06.270Z,6.8
2023-04-02T14:06:06.432Z,7.9
2023-04-02T14:11:01.320Z,8.4
2023-04-02T14:21:01.317Z,6.5
2023-04-02T14:26:06.476Z,6.9
2023-04-02T14:31:06.450Z,5.7
2023-04-02T14:36:13.620Z,5.3
2023-04-02T14:41:02.172Z,5.4
2023-04-02T14:46:01.708Z,5.2
2023-04-02T14:51:01.332Z,4.8
2023-04-02T14:56:06.283Z,4.7
2023-04-02T15:01:06.484Z,4.7
2023-04-02T15:06:01.293Z,3.8
2023-04-02T15:11:10.010Z,3.4
2023-04-02T15:26:06.426Z,5.0
2023-04-02T15:31:06.468Z,6.0
2023-04-02T15:36:17.085Z,6.6
2023-04-02T15:41:01.272Z,6.9
2023-04-02T15:46:01.845Z,7.3
2023-04-02T15:51:02.193Z,6.2
2023-04-02T15:56:01.880Z,6.1
2023-04-02T16:01:06.589Z,6.1
2023-04-02T16:06:06.336Z,6.2
2023-04-02T16:11:01.267Z,6.4
2023-04-02T16:16:06.285Z,6.3
2023-04-02T16:26:19.884Z,6.6
2023-04-02T16:31:02.019Z,6.4
2023-04-02T16:36:01.420Z,5.6
2023-04-02T16:41:09.505Z,5.4
2023-04-02T16:46:06.555Z,4.7
2023-04-02T16:51:01.925Z,3.8
2023-04-02T16:56:01.260Z,3.6
2023-04-02T17:01:01.257Z,3.9
2023-04-02T17:06:06.501Z,4.2
2023-04-02T17:11:01.268Z,4.9
2023-04-02T17:16:02.225Z,5.3
2023-04-02T17:21:06.420Z,5.6
2023-04-02T17:26:01.431Z,5.9
2023-04-02T17:31:06.421Z,5.8
2023-04-02T17:36:01.373Z,6.1
2023-04-02T17:42:06.430Z,6.5
2023-04-02T17:47:01.380Z,7.0
2023-04-02T17:52:06.730Z,6.8
2023-04-02T17:57:04.042Z,7.3
2023-04-02T18:02:01.531Z,7.3
2023-04-02T18:07:01.344Z,6.1
2023-04-02T18:12:02.240Z,6.1
2023-04-02T18:17:01.427Z,6.2
2023-04-02T18:22:06.431Z,6.2
2023-04-02T18:27:01.304Z,6.9
2023-04-02T18:32:01.290Z,8.1
2023-04-02T18:37:02.199Z,9.0
2023-04-02T18:42:01.435Z,9.7
2023-04-02T18:47:01.268Z,10.3
2023-04-02T18:52:01.279Z,10.3
2023-04-02T18:57:01.399Z,11.0
2023-04-02T19:02:01.419Z,11.1
2023-04-02T19:07:01.256Z,11.4
2023-04-02T19:12:01.274Z,11.8
2023-04-02T19:17:01.290Z,12.1
2023-04-02T19:22:01.445Z,12.5
2023-04-02T19:27:01.305Z,12.0
2023-04-02T19:32:01.631Z,11.7
2023-04-02T19:37:06.519Z,10.7
2023-04-02T19:42:06.308Z,9.6
2023-04-02T19:47:01.503Z,8.6
2023-04-02T19:52:01.337Z,8.0
2023-04-02T19:57:05.967Z,6.9
2023-04-02T20:02:05.597Z,6.7
2023-04-02T20:07:01.785Z,6.5
2023-04-02T20:12:06.358Z,6.0
2023-04-02T20:17:03.222Z,5.8
2023-04-02T20:22:01.289Z,5.8
2023-04-02T20:27:06.285Z,5.4
2023-04-02T20:32:01.336Z,5.2
2023-04-02T20:37:06.376Z,4.6
2023-04-02T20:42:01.446Z,3.9
2023-04-02T20:47:01.258Z,3.3
2023-04-02T20:52:01.349Z,2.9
2023-04-02T20:57:01.570Z,2.3
2023-04-02T21:02:06.344Z,2.5
2023-04-02T21:12:01.373Z,2.3
2023-04-02T21:17:01.429Z,2.2
2023-04-02T21:22:06.318Z,2.1
2023-04-02T21:27:07.045Z,1.8
2023-04-02T21:37:01.513Z,1.5
2023-04-02T21:42:01.303Z,1.3
2023-04-02T21:47:06.806Z,1.2
2023-04-02T21:52:01.283Z,1.1
2023-04-02T21:57:01.614Z,1.0
2023-04-02T22:03:01.561Z,1.0
2023-04-02T22:08:01.281Z,0.8
2023-04-02T22:13:01.584Z,0.8
2023-04-02T22:23:01.488Z,0.8
2023-04-02T22:28:01.344Z,0.6
2023-04-02T22:33:01.439Z,0.8
2023-04-02T22:38:01.320Z,0.8
2023-04-02T22:43:01.333Z,0.8
2023-04-02T22:48:01.485Z,0.8
2023-04-02T22:53:01.911Z,1.0
2023-04-02T22:58:06.366Z,1.2
2023-04-02T23:14:01.421Z,1.2
2023-04-02T23:19:06.353Z,1.2
2023-04-02T23:24:06.374Z,1.0
2023-04-02T23:29:01.342Z,1.1
2023-04-02T23:34:01.456Z,1.1
2023-04-02T23:44:01.336Z,0.9
2023-04-02T23:49:01.335Z,0.7
2023-04-02T23:54:01.981Z,0.6
2023-04-02T23:59:01.271Z,0.4
